createdAt,value
2019-03-28T00:02:18.211Z,4.70
2019-03-28T00:04:49.668Z,4.70
2019-03-28T00:07:23.880Z,4.70
2019-03-28T00:09:53.261Z,4.70
2019-03-28T00:12:24.311Z,4.70
2019-03-28T00:14:55.504Z,4.70
2019-03-28T00:17:26.392Z,4.60
2019-03-28T00:19:57.329Z,4.70
2019-03-28T00:22:38.515Z,4.60
2019-03-28T00:25:11.248Z,4.60
2019-03-28T00:27:42.016Z,4.60
2019-03-28T00:30:13.682Z,4.50
2019-03-28T00:32:44.535Z,4.50
2019-03-28T00:35:15.394Z,4.50
2019-03-28T00:37:46.164Z,4.50
2019-03-28T00:40:16.950Z,4.50
2019-03-28T00:42:47.720Z,4.50
2019-03-28T00:45:18.736Z,4.50
2019-03-28T00:47:49.580Z,4.40
2019-03-28T00:50:20.442Z,4.40
2019-03-28T00:52:51.353Z,4.40
2019-03-28T00:55:22.540Z,4.40
2019-03-28T00:57:53.454Z,4.30
2019-03-28T01:00:24.318Z,4.30
2019-03-28T01:02:55.161Z,4.30
2019-03-28T01:05:26.309Z,4.30
2019-03-28T01:07:57.097Z,4.30
2019-03-28T01:10:27.884Z,4.40
2019-03-28T01:12:58.789Z,4.40
2019-03-28T01:15:29.586Z,4.40
2019-03-28T01:18:00.371Z,4.40
2019-03-28T01:20:31.243Z,4.40
2019-03-28T01:23:02.040Z,4.40
2019-03-28T01:25:32.826Z,4.40
2019-03-28T01:28:03.683Z,4.40
2019-03-28T01:30:34.530Z,4.40
2019-03-28T01:33:05.313Z,4.40
2019-03-28T01:35:36.094Z,4.40
2019-03-28T01:38:06.858Z,4.30
2019-03-28T01:40:38.259Z,4.30
2019-03-28T01:43:09.068Z,4.30
2019-03-28T01:45:39.917Z,4.30
2019-03-28T01:48:10.707Z,4.30
2019-03-28T01:50:41.501Z,4.30
2019-03-28T01:53:13.225Z,4.30
2019-03-28T01:55:43.921Z,4.30
2019-03-28T01:58:21.732Z,4.20
2019-03-28T02:00:52.565Z,4.30
2019-03-28T02:03:23.801Z,4.30
2019-03-28T02:05:54.509Z,4.20
2019-03-28T02:08:26.180Z,4.20
2019-03-28T02:10:57.360Z,4.20
2019-03-28T02:13:28.166Z,4.20
2019-03-28T02:15:59.330Z,4.20
2019-03-28T02:18:30.119Z,4.20
2019-03-28T02:21:01.325Z,4.20
2019-03-28T02:23:32.373Z,4.20
2019-03-28T02:26:03.237Z,4.20
2019-03-28T02:28:35.372Z,4.20
2019-03-28T02:31:06.208Z,4.20
2019-03-28T02:33:36.922Z,4.20
2019-03-28T02:36:07.698Z,4.20
2019-03-28T02:38:38.476Z,4.20
2019-03-28T02:41:09.318Z,4.10
2019-03-28T02:43:40.081Z,4.20
2019-03-28T02:46:10.829Z,4.20
2019-03-28T02:48:41.667Z,4.10
2019-03-28T02:51:12.463Z,4.10
2019-03-28T02:53:43.375Z,4.10
2019-03-28T02:56:14.162Z,4.10
2019-03-28T02:58:45.036Z,4.20
2019-03-28T03:01:15.921Z,4.20
2019-03-28T03:03:46.821Z,4.20
2019-03-28T03:06:18.020Z,4.20
2019-03-28T03:08:48.877Z,4.20
2019-03-28T03:11:19.665Z,4.20
2019-03-28T03:13:50.521Z,4.20
2019-03-28T03:16:21.373Z,4.20
2019-03-28T03:18:52.230Z,4.20
2019-03-28T03:21:23.526Z,4.20
2019-03-28T03:23:54.402Z,4.20
2019-03-28T03:26:25.451Z,4.20
2019-03-28T03:28:56.172Z,4.20
2019-03-28T03:31:28.936Z,4.10
2019-03-28T03:33:59.743Z,4.10
2019-03-28T03:36:30.488Z,4.10
2019-03-28T03:39:01.248Z,4.10
2019-03-28T03:41:33.265Z,4.10
2019-03-28T03:44:04.039Z,4.10
2019-03-28T03:46:34.811Z,4.10
2019-03-28T03:49:05.737Z,4.10
2019-03-28T03:51:36.583Z,4.10
2019-03-28T03:54:07.496Z,4.10
2019-03-28T03:56:38.354Z,4.10
2019-03-28T03:59:09.228Z,4.00
2019-03-28T04:01:40.106Z,4.10
2019-03-28T04:04:10.950Z,4.00
2019-03-28T04:06:41.733Z,4.10
2019-03-28T04:09:12.520Z,4.10
2019-03-28T04:11:43.377Z,4.00
2019-03-28T04:14:14.233Z,4.10
2019-03-28T04:16:45.060Z,4.00
2019-03-28T04:19:15.874Z,4.00
2019-03-28T04:21:46.687Z,4.00
2019-03-28T04:24:17.392Z,4.00
2019-03-28T04:26:48.183Z,4.00
2019-03-28T04:29:18.953Z,4.00
2019-03-28T04:31:49.737Z,4.00
2019-03-28T04:34:20.437Z,4.00
2019-03-28T04:36:51.144Z,4.00
2019-03-28T04:39:21.961Z,4.00
2019-03-28T04:41:52.727Z,4.00
2019-03-28T04:44:23.582Z,4.00
2019-03-28T04:46:54.385Z,4.00
2019-03-28T04:49:25.254Z,4.00
2019-03-28T04:51:56.059Z,4.00
2019-03-28T04:54:26.852Z,4.00
2019-03-28T04:56:57.751Z,4.00
2019-03-28T04:59:28.597Z,4.00
2019-03-28T05:02:03.225Z,4.00
2019-03-28T05:04:31.777Z,4.10
2019-03-28T05:07:02.541Z,4.10
2019-03-28T05:09:34.401Z,4.10
2019-03-28T05:12:05.515Z,4.10
2019-03-28T05:14:36.348Z,4.10
2019-03-28T05:17:07.181Z,4.20
2019-03-28T05:19:38.021Z,4.20
2019-03-28T05:22:08.818Z,4.30
2019-03-28T05:24:39.692Z,4.30
2019-03-28T05:27:10.476Z,4.30
2019-03-28T05:29:41.276Z,4.40
2019-03-28T05:32:12.136Z,4.40
2019-03-28T05:34:43.019Z,4.40
2019-03-28T05:37:13.887Z,4.40
2019-03-28T05:39:45.343Z,4.50
2019-03-28T05:42:16.674Z,4.50
2019-03-28T05:44:47.592Z,4.50
2019-03-28T05:47:21.986Z,4.60
2019-03-28T05:49:51.927Z,4.70
2019-03-28T05:52:23.122Z,4.80
2019-03-28T05:54:57.536Z,4.80
2019-03-28T05:57:28.853Z,4.80
2019-03-28T05:59:59.586Z,5.00
2019-03-28T06:02:30.483Z,5.10
2019-03-28T06:05:01.800Z,5.20
2019-03-28T06:07:33.366Z,5.30
2019-03-28T06:10:04.423Z,5.40
2019-03-28T06:12:35.572Z,5.50
2019-03-28T06:15:07.938Z,5.60
2019-03-28T06:17:39.786Z,5.70
2019-03-28T06:20:12.457Z,5.80
2019-03-28T06:22:43.625Z,5.90
2019-03-28T06:25:17.295Z,6.00
2019-03-28T06:27:48.345Z,6.10
2019-03-28T06:30:19.182Z,6.20
2019-03-28T06:32:50.011Z,6.40
2019-03-28T06:35:21.982Z,6.60
2019-03-28T06:37:52.895Z,6.70
2019-03-28T06:40:23.890Z,6.70
2019-03-28T06:42:54.671Z,7.00
2019-03-28T06:45:25.478Z,7.00
2019-03-28T06:47:56.266Z,7.40
2019-03-28T06:50:27.018Z,7.40
2019-03-28T06:52:57.826Z,7.40
2019-03-28T06:55:28.685Z,7.80
2019-03-28T06:57:59.783Z,8.10
2019-03-28T07:00:30.567Z,7.70
2019-03-28T07:03:01.340Z,7.90
2019-03-28T07:05:32.206Z,8.30
2019-03-28T07:08:02.997Z,8.40
2019-03-28T07:10:33.834Z,8.60
2019-03-28T07:13:04.609Z,8.70
2019-03-28T07:15:36.833Z,8.60
2019-03-28T07:18:08.827Z,9.00
2019-03-28T07:20:39.591Z,9.20
2019-03-28T07:23:10.372Z,9.50
2019-03-28T07:25:41.205Z,9.30
2019-03-28T07:28:12.406Z,8.90
2019-03-28T07:30:46.343Z,9.30
2019-03-28T07:33:17.352Z,9.80
2019-03-28T07:35:48.387Z,10.10
2019-03-28T07:38:21.266Z,10.60
2019-03-28T07:40:53.458Z,10.90
2019-03-28T07:43:25.350Z,11.30
2019-03-28T07:45:56.304Z,12.40
2019-03-28T07:48:27.174Z,13.40
2019-03-28T07:50:58.039Z,13.90
2019-03-28T07:53:29.252Z,16.10
2019-03-28T07:55:59.989Z,16.40
2019-03-28T07:58:30.826Z,16.30
2019-03-28T08:01:01.740Z,15.30
2019-03-28T08:03:32.600Z,16.20
2019-03-28T08:06:03.385Z,15.50
2019-03-28T08:08:38.922Z,14.80
2019-03-28T08:11:06.836Z,14.80
2019-03-28T08:13:37.730Z,15.40
2019-03-28T08:16:08.595Z,15.70
2019-03-28T08:18:39.401Z,14.40
2019-03-28T08:21:10.213Z,14.30
2019-03-28T08:23:41.369Z,14.00
2019-03-28T08:26:12.155Z,15.60
2019-03-28T08:28:42.939Z,16.60
2019-03-28T08:31:13.774Z,16.90
2019-03-28T08:33:46.656Z,16.80
2019-03-28T08:36:17.519Z,16.20
2019-03-28T08:38:51.474Z,15.80
2019-03-28T08:41:22.614Z,16.60
2019-03-28T08:43:53.366Z,16.40
2019-03-28T08:46:24.323Z,16.40
2019-03-28T08:48:55.127Z,17.20
2019-03-28T08:51:27.477Z,17.30
2019-03-28T08:53:58.347Z,19.30
2019-03-28T08:56:29.155Z,19.60
2019-03-28T08:59:00.023Z,19.00
2019-03-28T09:01:30.799Z,19.10
2019-03-28T09:04:01.714Z,19.70
2019-03-28T09:06:33.843Z,20.60
2019-03-28T09:09:06.179Z,21.50
2019-03-28T09:11:37.144Z,21.70
2019-03-28T09:14:08.165Z,22.40
2019-03-28T09:16:39.256Z,23.30
2019-03-28T09:19:10.112Z,21.80
2019-03-28T09:21:40.998Z,20.90
2019-03-28T09:24:11.858Z,20.80
2019-03-28T09:26:42.654Z,20.90
2019-03-28T09:29:13.507Z,19.30
2019-03-28T09:31:45.139Z,18.20
2019-03-28T09:34:16.030Z,17.70
2019-03-28T09:36:47.191Z,17.80
2019-03-28T09:39:18.891Z,17.60
2019-03-28T09:41:50.011Z,17.00
2019-03-28T09:44:20.909Z,17.00
2019-03-28T09:46:52.388Z,18.20
2019-03-28T09:49:24.329Z,18.60
2019-03-28T09:51:55.529Z,18.40
2019-03-28T09:54:26.416Z,18.50
2019-03-28T09:56:59.509Z,18.70
2019-03-28T09:59:30.884Z,18.70
2019-03-28T10:02:01.999Z,17.20
2019-03-28T10:04:33.143Z,17.50
2019-03-28T10:07:03.991Z,17.40
2019-03-28T10:09:34.913Z,16.50
2019-03-28T10:12:05.802Z,18.00
2019-03-28T10:14:36.619Z,18.10
2019-03-28T10:17:07.763Z,18.50
2019-03-28T10:19:38.604Z,18.60
2019-03-28T10:22:09.792Z,18.10
2019-03-28T10:24:40.989Z,18.20
2019-03-28T10:27:11.893Z,17.90
2019-03-28T10:29:43.082Z,17.50
2019-03-28T10:32:13.875Z,17.70
2019-03-28T10:34:44.725Z,18.60
2019-03-28T10:37:15.620Z,19.70
2019-03-28T10:39:46.531Z,19.90
2019-03-28T10:42:18.535Z,21.50
2019-03-28T10:44:49.846Z,22.50
2019-03-28T10:47:21.171Z,22.50
2019-03-28T10:49:52.096Z,22.70
2019-03-28T10:52:23.001Z,22.80
2019-03-28T10:54:53.994Z,23.40
2019-03-28T10:57:29.843Z,22.80
2019-03-28T10:59:57.878Z,22.20
2019-03-28T11:02:29.119Z,20.80
2019-03-28T11:05:00.391Z,18.60
2019-03-28T11:07:32.121Z,20.60
2019-03-28T11:10:03.102Z,21.20
2019-03-28T11:12:33.936Z,20.80
2019-03-28T11:15:05.256Z,21.50
2019-03-28T11:17:36.205Z,22.80
2019-03-28T11:20:07.638Z,21.70
2019-03-28T11:22:38.578Z,22.90
2019-03-28T11:25:09.636Z,22.90
2019-03-28T11:27:40.557Z,22.70
2019-03-28T11:30:12.741Z,21.60
2019-03-28T11:32:43.661Z,22.00
2019-03-28T11:35:15.568Z,21.40
2019-03-28T11:37:46.478Z,21.50
2019-03-28T11:40:17.398Z,21.20
2019-03-28T11:42:48.317Z,21.60
2019-03-28T11:45:19.297Z,21.60
2019-03-28T11:47:50.270Z,20.50
2019-03-28T11:50:21.838Z,20.60
2019-03-28T11:52:52.971Z,20.20
2019-03-28T11:55:24.169Z,19.40
2019-03-28T11:58:13.565Z,20.50
2019-03-28T12:00:44.078Z,20.20
2019-03-28T12:03:14.495Z,19.70
2019-03-28T12:05:45.044Z,19.80
2019-03-28T12:08:16.136Z,20.40
2019-03-28T12:10:46.613Z,21.00
2019-03-28T12:13:17.007Z,20.40
2019-03-28T12:15:47.434Z,21.60
2019-03-28T12:18:18.200Z,21.00
2019-03-28T12:20:48.633Z,22.20
2019-03-28T12:23:19.113Z,22.90
2019-03-28T12:25:49.505Z,23.30
2019-03-28T12:28:20.979Z,23.00
2019-03-28T12:30:51.456Z,23.40
2019-03-28T12:33:21.856Z,23.40
2019-03-28T12:35:53.385Z,22.10
2019-03-28T12:38:23.785Z,22.70
2019-03-28T12:40:55.641Z,21.30
2019-03-28T12:43:26.356Z,20.60
2019-03-28T12:45:56.832Z,20.50
2019-03-28T12:48:27.253Z,18.70
2019-03-28T12:50:59.369Z,18.00
2019-03-28T12:53:31.212Z,18.60
2019-03-28T12:56:01.993Z,19.00
2019-03-28T12:58:33.188Z,18.90
2019-03-28T13:01:03.684Z,18.60
2019-03-28T13:03:44.922Z,18.40
2019-03-28T13:06:06.188Z,19.00
2019-03-28T13:08:36.504Z,19.10
2019-03-28T13:11:07.301Z,18.90
2019-03-28T13:13:37.716Z,18.50
2019-03-28T13:16:08.124Z,18.80
2019-03-28T13:18:38.562Z,17.10
2019-03-28T13:21:13.844Z,17.50
2019-03-28T13:23:41.297Z,17.50
2019-03-28T13:26:11.607Z,17.20
2019-03-28T13:28:41.925Z,17.30
2019-03-28T13:31:12.313Z,17.10
2019-03-28T13:33:42.770Z,17.00
2019-03-28T13:36:15.635Z,17.50
2019-03-28T13:38:46.442Z,16.70
2019-03-28T13:41:17.533Z,16.80
2019-03-28T13:43:48.047Z,16.80
2019-03-28T13:46:18.546Z,17.00
2019-03-28T13:48:48.983Z,16.80
2019-03-28T13:51:19.912Z,16.70
2019-03-28T13:53:52.059Z,16.10
2019-03-28T13:56:23.787Z,15.80
2019-03-28T13:58:54.298Z,15.50
2019-03-28T14:01:26.231Z,15.20
2019-03-28T14:03:56.982Z,15.50
2019-03-28T14:06:29.926Z,15.70
2019-03-28T14:09:00.963Z,16.00
2019-03-28T14:11:32.989Z,15.60
2019-03-28T14:14:03.546Z,15.20
2019-03-28T14:16:34.459Z,15.60
2019-03-28T14:19:05.011Z,15.70
2019-03-28T14:21:35.480Z,15.70
2019-03-28T14:24:05.972Z,15.80
2019-03-28T14:26:37.633Z,15.60
2019-03-28T14:29:08.310Z,15.70
2019-03-28T14:31:39.030Z,15.60
2019-03-28T14:34:09.562Z,15.70
2019-03-28T14:36:40.175Z,15.30
2019-03-28T14:39:10.917Z,15.50
2019-03-28T14:41:41.721Z,15.50
2019-03-28T14:44:12.171Z,15.50
2019-03-28T14:46:43.223Z,16.00
2019-03-28T14:49:14.063Z,16.40
2019-03-28T14:51:44.626Z,16.00
2019-03-28T14:54:15.223Z,15.90
2019-03-28T14:56:46.443Z,15.90
2019-03-28T14:59:31.422Z,15.60
2019-03-28T15:01:50.695Z,15.60
2019-03-28T15:04:21.119Z,15.60
2019-03-28T15:06:51.529Z,15.90
2019-03-28T15:09:21.948Z,15.70
2019-03-28T15:11:52.460Z,15.50
2019-03-28T15:14:22.987Z,15.40
2019-03-28T15:16:53.470Z,15.10
2019-03-28T15:19:23.901Z,15.00
2019-03-28T15:21:54.405Z,14.80
2019-03-28T15:24:24.945Z,14.60
2019-03-28T15:26:55.875Z,14.50
2019-03-28T15:29:26.346Z,14.40
2019-03-28T15:31:56.765Z,14.20
2019-03-28T15:34:27.481Z,14.00
2019-03-28T15:36:57.943Z,13.80
2019-03-28T15:39:28.391Z,13.80
2019-03-28T15:41:58.849Z,13.60
2019-03-28T15:44:29.835Z,13.40
2019-03-28T15:47:00.266Z,13.30
2019-03-28T15:49:30.724Z,13.40
2019-03-28T15:52:03.244Z,13.50
2019-03-28T15:54:33.528Z,13.30
2019-03-28T15:57:04.082Z,13.10
2019-03-28T15:59:34.586Z,13.10
2019-03-28T16:02:06.845Z,13.00
2019-03-28T16:04:37.245Z,13.00
2019-03-28T16:07:07.820Z,13.00
2019-03-28T16:09:38.829Z,13.00
2019-03-28T16:12:10.057Z,13.00
2019-03-28T16:14:40.563Z,13.10
2019-03-28T16:17:11.024Z,13.00
2019-03-28T16:19:41.352Z,13.00
2019-03-28T16:22:12.171Z,12.80
2019-03-28T16:24:42.679Z,12.60
2019-03-28T16:27:14.055Z,12.40
2019-03-28T16:29:44.674Z,12.40
2019-03-28T16:32:16.264Z,12.20
2019-03-28T16:34:46.854Z,12.00
2019-03-28T16:37:17.356Z,11.90
2019-03-28T16:39:50.067Z,11.90
2019-03-28T16:42:19.970Z,11.90
2019-03-28T16:44:50.365Z,11.90
2019-03-28T16:47:21.464Z,11.80
2019-03-28T16:49:51.951Z,11.70
2019-03-28T16:52:22.400Z,11.70
2019-03-28T16:54:53.572Z,11.60
2019-03-28T16:57:24.148Z,11.60
2019-03-28T16:59:54.616Z,11.50
2019-03-28T17:02:25.118Z,11.40
2019-03-28T17:04:55.419Z,11.40
2019-03-28T17:07:26.449Z,11.40
2019-03-28T17:09:57.250Z,11.30
2019-03-28T17:12:27.837Z,11.20
2019-03-28T17:14:58.691Z,11.20
2019-03-28T17:17:29.279Z,11.10
2019-03-28T17:19:59.658Z,11.10
2019-03-28T17:22:30.101Z,11.00
2019-03-28T17:25:00.849Z,11.00
2019-03-28T17:27:31.213Z,10.90
2019-03-28T17:30:01.706Z,10.80
2019-03-28T17:32:32.214Z,10.80
2019-03-28T17:35:03.927Z,10.70
2019-03-28T17:37:34.735Z,10.70
2019-03-28T17:40:05.870Z,10.70
2019-03-28T17:42:37.776Z,10.70
2019-03-28T17:45:08.837Z,10.60
2019-03-28T17:47:39.333Z,10.50
2019-03-28T17:50:10.184Z,10.40
2019-03-28T17:52:41.193Z,10.40
2019-03-28T17:55:12.116Z,10.30
2019-03-28T17:57:42.642Z,10.30
2019-03-28T18:00:13.713Z,10.20
2019-03-28T18:02:44.156Z,10.20
2019-03-28T18:05:15.976Z,10.10
2019-03-28T18:07:47.488Z,10.10
2019-03-28T18:10:18.031Z,10.10
2019-03-28T18:12:48.530Z,10.10
2019-03-28T18:15:19.312Z,10.10
2019-03-28T18:17:50.145Z,10.00
2019-03-28T18:20:20.699Z,10.00
2019-03-28T18:22:51.281Z,10.00
2019-03-28T18:25:21.780Z,10.00
2019-03-28T18:27:52.208Z,9.90
2019-03-28T18:30:23.363Z,9.90
2019-03-28T18:32:54.857Z,9.80
2019-03-28T18:35:25.214Z,9.80
2019-03-28T18:37:55.849Z,9.80
2019-03-28T18:40:26.314Z,9.80
2019-03-28T18:42:57.898Z,9.70
2019-03-28T18:45:28.551Z,9.70
2019-03-28T18:47:59.171Z,9.70
2019-03-28T18:50:30.703Z,9.60
2019-03-28T18:53:01.061Z,9.60
2019-03-28T18:55:31.480Z,9.60
2019-03-28T18:58:01.892Z,9.50
2019-03-28T19:00:37.980Z,9.50
2019-03-28T19:03:09.522Z,9.50
2019-03-28T19:05:40.275Z,9.40
2019-03-28T19:08:10.846Z,9.40
2019-03-28T19:10:41.533Z,9.30
2019-03-28T19:13:12.069Z,9.30
2019-03-28T19:15:42.658Z,9.30
2019-03-28T19:18:34.627Z,9.30
2019-03-28T19:21:06.582Z,9.20
2019-03-28T19:23:37.371Z,9.20
2019-03-28T19:26:10.609Z,9.20
2019-03-28T19:28:39.942Z,9.10
2019-03-28T19:31:10.536Z,9.10
2019-03-28T19:33:41.197Z,9.00
2019-03-28T19:36:12.628Z,9.10
2019-03-28T19:38:43.206Z,9.00
2019-03-28T19:41:14.058Z,9.00
2019-03-28T19:43:45.413Z,9.00
2019-03-28T19:46:15.991Z,9.00
2019-03-28T19:48:48.788Z,9.00
2019-03-28T19:51:19.172Z,9.00
2019-03-28T19:53:50.612Z,9.10
2019-03-28T19:56:21.210Z,9.10
2019-03-28T19:58:51.922Z,9.10
2019-03-28T20:01:23.162Z,9.00
2019-03-28T20:03:59.996Z,9.00
2019-03-28T20:06:30.366Z,9.00
2019-03-28T20:09:00.931Z,9.00
2019-03-28T20:11:31.796Z,8.90
2019-03-28T20:14:03.520Z,9.00
2019-03-28T20:16:34.420Z,8.90
2019-03-28T20:19:21.489Z,8.90
2019-03-28T20:21:52.016Z,8.90
2019-03-28T20:24:22.800Z,8.90
2019-03-28T20:26:54.273Z,8.90
2019-03-28T20:29:25.985Z,8.90
2019-03-28T20:31:58.230Z,8.90
2019-03-28T20:34:29.851Z,8.90
2019-03-28T20:37:02.132Z,8.80
2019-03-28T20:39:32.983Z,8.80
2019-03-28T20:42:05.920Z,8.80
2019-03-28T20:44:37.843Z,8.80
2019-03-28T20:47:09.593Z,8.70
2019-03-28T20:49:40.186Z,8.70
2019-03-28T20:52:11.794Z,8.60
2019-03-28T20:54:43.724Z,8.60
2019-03-28T20:57:14.871Z,8.60
2019-03-28T20:59:45.427Z,8.60
2019-03-28T21:02:30.888Z,8.50
2019-03-28T21:05:01.424Z,8.60
2019-03-28T21:07:33.389Z,8.50
2019-03-28T21:10:04.070Z,8.50
2019-03-28T21:12:35.725Z,8.50
2019-03-28T21:15:07.168Z,8.40
2019-03-28T21:17:38.325Z,8.40
2019-03-28T21:20:12.260Z,8.40
2019-03-28T21:22:42.723Z,8.40
2019-03-28T21:25:13.240Z,8.40
2019-03-28T21:27:43.641Z,8.40
2019-03-28T21:30:18.187Z,8.40
2019-03-28T21:32:55.430Z,8.40
2019-03-28T21:35:19.144Z,8.40
2019-03-28T21:37:50.213Z,8.40
2019-03-28T21:40:21.410Z,8.40
2019-03-28T21:42:51.918Z,8.40
2019-03-28T21:45:22.420Z,8.30
2019-03-28T21:47:53.009Z,8.30
2019-03-28T21:50:23.633Z,8.20
2019-03-28T21:52:54.104Z,8.30
2019-03-28T21:55:24.768Z,8.30
2019-03-28T21:57:55.234Z,8.20
2019-03-28T22:00:25.789Z,8.20
2019-03-28T22:02:56.408Z,8.20
2019-03-28T22:05:28.823Z,8.20
2019-03-28T22:07:59.050Z,8.20
2019-03-28T22:10:29.653Z,8.10
2019-03-28T22:13:00.067Z,8.10
2019-03-28T22:15:31.690Z,8.10
2019-03-28T22:18:02.140Z,8.10
2019-03-28T22:20:32.780Z,8.00
2019-03-28T22:23:03.167Z,7.90
2019-03-28T22:25:33.612Z,7.90
2019-03-28T22:28:04.286Z,7.90
2019-03-28T22:30:34.648Z,7.80
2019-03-28T22:33:05.604Z,7.80
2019-03-28T22:35:35.954Z,7.80
2019-03-28T22:38:06.412Z,7.80
2019-03-28T22:40:36.862Z,7.70
2019-03-28T22:43:07.370Z,7.70
2019-03-28T22:45:37.898Z,7.70
2019-03-28T22:48:11.025Z,7.70
2019-03-28T22:50:40.224Z,7.60
2019-03-28T22:53:10.656Z,7.60
2019-03-28T22:55:41.026Z,7.60
2019-03-28T22:58:11.448Z,7.60
2019-03-28T23:00:44.957Z,7.50
2019-03-28T23:03:17.898Z,7.50
2019-03-28T23:05:48.311Z,7.40
2019-03-28T23:08:19.034Z,7.30
2019-03-28T23:10:49.309Z,7.20
2019-03-28T23:13:19.588Z,7.10
2019-03-28T23:15:51.629Z,6.90
2019-03-28T23:18:22.026Z,6.80
2019-03-28T23:20:52.371Z,6.70
2019-03-28T23:23:22.750Z,6.60
2019-03-28T23:25:53.085Z,6.50
2019-03-28T23:28:23.512Z,6.40
2019-03-28T23:30:54.217Z,6.30
2019-03-28T23:33:25.206Z,6.10
2019-03-28T23:35:55.590Z,6.00
2019-03-28T23:38:26.024Z,5.90
2019-03-28T23:40:56.308Z,5.80
2019-03-28T23:43:26.580Z,5.70
2019-03-28T23:45:56.953Z,5.60
2019-03-28T23:48:27.729Z,5.50
2019-03-28T23:50:58.723Z,5.40
2019-03-28T23:53:29.186Z,5.40
2019-03-28T23:56:00.439Z,5.30
2019-03-28T23:58:30.803Z,5.20
